sensor_id;sensor_type;location;lat;lon;timestamp;temperature;humidity
55083;DHT22;40978;52.850;6.506;2022-08-21T00:01:25;14.80;99.90
55083;DHT22;40978;52.850;6.506;2022-08-21T00:03:52;14.80;99.90
55083;DHT22;40978;52.850;6.506;2022-08-21T00:06:18;14.80;99.90
55083;DHT22;40978;52.850;6.506;2022-08-21T00:08:44;14.80;99.90
55083;DHT22;40978;52.850;6.506;2022-08-21T00:11:10;14.80;99.90
55083;DHT22;40978;52.850;6.506;2022-08-21T00:13:36;14.70;99.90
55083;DHT22;40978;52.850;6.506;2022-08-21T00:16:03;14.70;99.90
55083;DHT22;40978;52.850;6.506;2022-08-21T00:18:29;14.70;99.90
55083;DHT22;40978;52.850;6.506;2022-08-21T00:20:55;14.70;99.90
55083;DHT22;40978;52.850;6.506;2022-08-21T00:23:21;14.70;99.90
55083;DHT22;40978;52.850;6.506;2022-08-21T00:25:47;14.70;99.90
55083;DHT22;40978;52.850;6.506;2022-08-21T00:28:13;14.60;99.90
55083;DHT22;40978;52.850;6.506;2022-08-21T00:30:40;14.60;99.90
55083;DHT22;40978;52.850;6.506;2022-08-21T00:33:06;14.60;99.90
55083;DHT22;40978;52.850;6.506;2022-08-21T00:35:36;14.60;99.90
55083;DHT22;40978;52.850;6.506;2022-08-21T00:38:04;14.50;99.90
55083;DHT22;40978;52.850;6.506;2022-08-21T00:40:52;14.50;99.90
55083;DHT22;40978;52.850;6.506;2022-08-21T00:43:21;14.50;99.90
55083;DHT22;40978;52.850;6.506;2022-08-21T00:45:48;14.50;99.90
55083;DHT22;40978;52.850;6.506;2022-08-21T00:48:14;14.40;99.90
55083;DHT22;40978;52.850;6.506;2022-08-21T00:50:50;14.50;99.90
55083;DHT22;40978;52.850;6.506;2022-08-21T00:53:18;14.40;99.90
55083;DHT22;40978;52.850;6.506;2022-08-21T00:55:45;14.40;99.90
55083;DHT22;40978;52.850;6.506;2022-08-21T00:58:12;14.40;99.90
55083;DHT22;40978;52.850;6.506;2022-08-21T01:00:40;14.40;99.90
55083;DHT22;40978;52.850;6.506;2022-08-21T01:03:11;14.30;99.90
55083;DHT22;40978;52.850;6.506;2022-08-21T01:05:37;14.40;99.90
55083;DHT22;40978;52.850;6.506;2022-08-21T01:08:04;14.30;99.90
55083;DHT22;40978;52.850;6.506;2022-08-21T01:10:30;14.30;99.90
55083;DHT22;40978;52.850;6.506;2022-08-21T01:12:57;14.30;99.90
55083;DHT22;40978;52.850;6.506;2022-08-21T01:15:30;14.20;99.90
55083;DHT22;40978;52.850;6.506;2022-08-21T01:17:57;14.30;99.90
55083;DHT22;40978;52.850;6.506;2022-08-21T01:20:23;14.20;99.90
55083;DHT22;40978;52.850;6.506;2022-08-21T01:22:49;14.20;99.90
55083;DHT22;40978;52.850;6.506;2022-08-21T01:25:16;14.20;99.90
55083;DHT22;40978;52.850;6.506;2022-08-21T01:27:43;14.10;99.90
55083;DHT22;40978;52.850;6.506;2022-08-21T01:30:26;14.20;99.90
55083;DHT22;40978;52.850;6.506;2022-08-21T01:32:53;14.10;99.90
55083;DHT22;40978;52.850;6.506;2022-08-21T01:35:19;14.10;99.90
55083;DHT22;40978;52.850;6.506;2022-08-21T01:37:47;14.10;99.90
55083;DHT22;40978;52.850;6.506;2022-08-21T01:40:15;14.10;99.90
55083;DHT22;40978;52.850;6.506;2022-08-21T01:42:43;14.10;99.90
55083;DHT22;40978;52.850;6.506;2022-08-21T01:45:10;14.00;99.90
55083;DHT22;40978;52.850;6.506;2022-08-21T01:47:36;14.10;99.90
55083;DHT22;40978;52.850;6.506;2022-08-21T01:50:07;14.00;99.90
55083;DHT22;40978;52.850;6.506;2022-08-21T01:52:34;14.00;99.90
55083;DHT22;40978;52.850;6.506;2022-08-21T01:55:00;13.90;99.90
55083;DHT22;40978;52.850;6.506;2022-08-21T01:57:26;13.90;99.90
55083;DHT22;40978;52.850;6.506;2022-08-21T01:59:52;13.90;99.90
55083;DHT22;40978;52.850;6.506;2022-08-21T02:02:17;13.90;99.90
55083;DHT22;40978;52.850;6.506;2022-08-21T02:04:43;13.80;99.90
55083;DHT22;40978;52.850;6.506;2022-08-21T02:07:09;13.80;99.90
55083;DHT22;40978;52.850;6.506;2022-08-21T02:09:34;13.80;99.90
55083;DHT22;40978;52.850;6.506;2022-08-21T02:12:00;13.80;99.90
55083;DHT22;40978;52.850;6.506;2022-08-21T02:14:26;13.80;99.90
55083;DHT22;40978;52.850;6.506;2022-08-21T02:16:52;13.70;99.90
55083;DHT22;40978;52.850;6.506;2022-08-21T02:19:18;13.70;99.90
55083;DHT22;40978;52.850;6.506;2022-08-21T02:21:44;13.70;99.90
55083;DHT22;40978;52.850;6.506;2022-08-21T02:24:11;13.70;99.90
55083;DHT22;40978;52.850;6.506;2022-08-21T02:26:37;13.60;99.90
55083;DHT22;40978;52.850;6.506;2022-08-21T02:29:04;13.60;99.90
55083;DHT22;40978;52.850;6.506;2022-08-21T02:31:30;13.60;99.90
55083;DHT22;40978;52.850;6.506;2022-08-21T02:33:56;13.50;99.90
55083;DHT22;40978;52.850;6.506;2022-08-21T02:36:22;13.60;99.90
55083;DHT22;40978;52.850;6.506;2022-08-21T02:38:48;13.50;99.90
55083;DHT22;40978;52.850;6.506;2022-08-21T02:41:17;13.50;99.90
55083;DHT22;40978;52.850;6.506;2022-08-21T02:43:43;13.50;99.90
55083;DHT22;40978;52.850;6.506;2022-08-21T02:46:16;13.50;99.90
55083;DHT22;40978;52.850;6.506;2022-08-21T02:48:43;13.40;99.90
55083;DHT22;40978;52.850;6.506;2022-08-21T02:51:16;13.40;99.90
55083;DHT22;40978;52.850;6.506;2022-08-21T02:53:43;13.40;99.90
55083;DHT22;40978;52.850;6.506;2022-08-21T02:56:13;13.40;99.90
55083;DHT22;40978;52.850;6.506;2022-08-21T02:58:42;13.40;99.90
55083;DHT22;40978;52.850;6.506;2022-08-21T03:01:09;13.40;99.90
55083;DHT22;40978;52.850;6.506;2022-08-21T03:03:41;13.40;99.90
55083;DHT22;40978;52.850;6.506;2022-08-21T03:06:07;13.40;99.90
55083;DHT22;40978;52.850;6.506;2022-08-21T03:08:34;13.30;99.90
55083;DHT22;40978;52.850;6.506;2022-08-21T03:10:59;13.40;99.90
55083;DHT22;40978;52.850;6.506;2022-08-21T03:13:26;13.30;99.90
55083;DHT22;40978;52.850;6.506;2022-08-21T03:15:53;13.30;99.90
55083;DHT22;40978;52.850;6.506;2022-08-21T03:18:19;13.30;99.90
55083;DHT22;40978;52.850;6.506;2022-08-21T03:20:45;13.30;99.90
55083;DHT22;40978;52.850;6.506;2022-08-21T03:23:12;13.30;99.90
55083;DHT22;40978;52.850;6.506;2022-08-21T03:25:38;13.30;99.90
55083;DHT22;40978;52.850;6.506;2022-08-21T03:28:05;13.30;99.90
55083;DHT22;40978;52.850;6.506;2022-08-21T03:30:31;13.30;99.90
55083;DHT22;40978;52.850;6.506;2022-08-21T03:32:58;13.30;99.90
55083;DHT22;40978;52.850;6.506;2022-08-21T03:35:25;13.30;99.90
55083;DHT22;40978;52.850;6.506;2022-08-21T03:37:51;13.20;99.90
55083;DHT22;40978;52.850;6.506;2022-08-21T03:40:17;13.20;99.90
55083;DHT22;40978;52.850;6.506;2022-08-21T03:42:44;13.20;99.90
55083;DHT22;40978;52.850;6.506;2022-08-21T03:45:13;13.20;99.90
55083;DHT22;40978;52.850;6.506;2022-08-21T03:47:54;13.20;99.90
55083;DHT22;40978;52.850;6.506;2022-08-21T03:50:22;13.20;99.90
55083;DHT22;40978;52.850;6.506;2022-08-21T03:52:48;13.20;99.90
55083;DHT22;40978;52.850;6.506;2022-08-21T03:55:14;13.20;99.90
55083;DHT22;40978;52.850;6.506;2022-08-21T03:57:39;13.20;99.90
55083;DHT22;40978;52.850;6.506;2022-08-21T04:00:05;13.10;99.90
55083;DHT22;40978;52.850;6.506;2022-08-21T04:02:34;13.10;99.90
55083;DHT22;40978;52.850;6.506;2022-08-21T04:04:59;13.10;99.90
55083;DHT22;40978;52.850;6.506;2022-08-21T04:07:25;13.10;99.90
55083;DHT22;40978;52.850;6.506;2022-08-21T04:09:51;13.10;99.90
55083;DHT22;40978;52.850;6.506;2022-08-21T04:12:16;13.10;99.90
55083;DHT22;40978;52.850;6.506;2022-08-21T04:14:42;13.10;99.90
55083;DHT22;40978;52.850;6.506;2022-08-21T04:17:08;13.10;99.90
55083;DHT22;40978;52.850;6.506;2022-08-21T04:19:33;13.10;99.90
55083;DHT22;40978;52.850;6.506;2022-08-21T04:21:59;13.10;99.90
55083;DHT22;40978;52.850;6.506;2022-08-21T04:24:25;13.10;99.90
55083;DHT22;40978;52.850;6.506;2022-08-21T04:26:50;13.10;99.90
55083;DHT22;40978;52.850;6.506;2022-08-21T04:29:16;13.10;99.90
55083;DHT22;40978;52.850;6.506;2022-08-21T04:31:42;13.10;99.90
55083;DHT22;40978;52.850;6.506;2022-08-21T04:34:09;13.10;99.90
55083;DHT22;40978;52.850;6.506;2022-08-21T04:36:35;13.10;99.90
55083;DHT22;40978;52.850;6.506;2022-08-21T04:39:01;13.10;99.90
55083;DHT22;40978;52.850;6.506;2022-08-21T04:41:27;13.10;99.90
55083;DHT22;40978;52.850;6.506;2022-08-21T04:43:54;13.10;99.90
55083;DHT22;40978;52.850;6.506;2022-08-21T04:46:21;13.10;99.90
55083;DHT22;40978;52.850;6.506;2022-08-21T04:48:47;13.10;99.90
55083;DHT22;40978;52.850;6.506;2022-08-21T04:51:24;13.10;99.90
55083;DHT22;40978;52.850;6.506;2022-08-21T04:53:53;13.20;99.90
55083;DHT22;40978;52.850;6.506;2022-08-21T04:58:48;13.30;99.90
55083;DHT22;40978;52.850;6.506;2022-08-21T05:01:19;13.30;99.90
55083;DHT22;40978;52.850;6.506;2022-08-21T05:03:48;13.30;99.90
55083;DHT22;40978;52.850;6.506;2022-08-21T05:06:15;13.40;99.90
55083;DHT22;40978;52.850;6.506;2022-08-21T05:08:44;13.40;99.90
55083;DHT22;40978;52.850;6.506;2022-08-21T05:11:11;13.40;99.90
55083;DHT22;40978;52.850;6.506;2022-08-21T05:13:37;13.50;99.90
55083;DHT22;40978;52.850;6.506;2022-08-21T05:16:03;13.50;99.90
55083;DHT22;40978;52.850;6.506;2022-08-21T05:18:28;13.60;99.90
55083;DHT22;40978;52.850;6.506;2022-08-21T05:20:54;13.70;99.90
55083;DHT22;40978;52.850;6.506;2022-08-21T05:23:20;13.70;99.90
55083;DHT22;40978;52.850;6.506;2022-08-21T05:25:46;13.80;99.90
55083;DHT22;40978;52.850;6.506;2022-08-21T05:28:12;13.90;99.90
55083;DHT22;40978;52.850;6.506;2022-08-21T05:30:38;14.00;99.90
55083;DHT22;40978;52.850;6.506;2022-08-21T05:33:05;14.10;99.90
55083;DHT22;40978;52.850;6.506;2022-08-21T05:35:32;14.20;99.90
55083;DHT22;40978;52.850;6.506;2022-08-21T05:37:58;14.30;99.90
55083;DHT22;40978;52.850;6.506;2022-08-21T05:40:25;14.50;99.90
55083;DHT22;40978;52.850;6.506;2022-08-21T05:42:52;14.80;99.90
55083;DHT22;40978;52.850;6.506;2022-08-21T05:45:18;15.10;99.90
55083;DHT22;40978;52.850;6.506;2022-08-21T05:47:44;15.50;99.90
55083;DHT22;40978;52.850;6.506;2022-08-21T05:50:10;15.90;99.90
55083;DHT22;40978;52.850;6.506;2022-08-21T05:52:36;16.10;99.90
55083;DHT22;40978;52.850;6.506;2022-08-21T05:55:02;16.40;99.90
55083;DHT22;40978;52.850;6.506;2022-08-21T05:57:28;16.70;99.90
55083;DHT22;40978;52.850;6.506;2022-08-21T05:59:53;16.80;99.90
55083;DHT22;40978;52.850;6.506;2022-08-21T06:02:20;16.70;99.90
55083;DHT22;40978;52.850;6.506;2022-08-21T06:04:47;16.60;99.90
55083;DHT22;40978;52.850;6.506;2022-08-21T06:07:13;16.60;99.90
55083;DHT22;40978;52.850;6.506;2022-08-21T06:09:39;16.60;99.90
55083;DHT22;40978;52.850;6.506;2022-08-21T06:12:06;16.60;99.90
55083;DHT22;40978;52.850;6.506;2022-08-21T06:14:31;16.70;99.90
55083;DHT22;40978;52.850;6.506;2022-08-21T06:17:05;16.70;99.90
55083;DHT22;40978;52.850;6.506;2022-08-21T06:19:31;16.80;99.90
55083;DHT22;40978;52.850;6.506;2022-08-21T06:21:58;16.90;99.90
55083;DHT22;40978;52.850;6.506;2022-08-21T06:24:23;16.90;99.90
55083;DHT22;40978;52.850;6.506;2022-08-21T06:26:49;17.00;99.90
55083;DHT22;40978;52.850;6.506;2022-08-21T06:29:15;17.10;99.90
55083;DHT22;40978;52.850;6.506;2022-08-21T06:31:47;17.20;99.90
55083;DHT22;40978;52.850;6.506;2022-08-21T06:34:13;17.30;99.90
55083;DHT22;40978;52.850;6.506;2022-08-21T06:36:39;17.40;99.90
55083;DHT22;40978;52.850;6.506;2022-08-21T06:39:05;17.50;99.90
55083;DHT22;40978;52.850;6.506;2022-08-21T06:41:31;17.60;99.90
55083;DHT22;40978;52.850;6.506;2022-08-21T06:43:57;17.70;99.90
55083;DHT22;40978;52.850;6.506;2022-08-21T06:46:24;17.70;99.90
55083;DHT22;40978;52.850;6.506;2022-08-21T06:48:50;17.80;99.90
55083;DHT22;40978;52.850;6.506;2022-08-21T06:51:16;18.00;99.90
55083;DHT22;40978;52.850;6.506;2022-08-21T06:53:41;18.10;99.90
55083;DHT22;40978;52.850;6.506;2022-08-21T06:56:07;18.20;99.90
55083;DHT22;40978;52.850;6.506;2022-08-21T06:58:33;18.30;99.90
55083;DHT22;40978;52.850;6.506;2022-08-21T07:00:59;18.50;99.90
55083;DHT22;40978;52.850;6.506;2022-08-21T07:03:44;18.60;99.90
55083;DHT22;40978;52.850;6.506;2022-08-21T07:06:10;18.80;99.90
55083;DHT22;40978;52.850;6.506;2022-08-21T07:08:36;18.90;99.90
55083;DHT22;40978;52.850;6.506;2022-08-21T07:11:04;19.00;99.90
55083;DHT22;40978;52.850;6.506;2022-08-21T07:13:32;19.10;99.90
55083;DHT22;40978;52.850;6.506;2022-08-21T07:15:58;19.30;99.90
55083;DHT22;40978;52.850;6.506;2022-08-21T07:18:24;19.40;99.90
55083;DHT22;40978;52.850;6.506;2022-08-21T07:20:50;19.60;99.90
55083;DHT22;40978;52.850;6.506;2022-08-21T07:23:29;19.70;99.90
55083;DHT22;40978;52.850;6.506;2022-08-21T07:25:55;19.90;99.90
55083;DHT22;40978;52.850;6.506;2022-08-21T07:28:21;20.00;99.90
55083;DHT22;40978;52.850;6.506;2022-08-21T07:30:52;20.10;99.90
55083;DHT22;40978;52.850;6.506;2022-08-21T07:33:18;20.20;99.90
55083;DHT22;40978;52.850;6.506;2022-08-21T07:35:44;20.40;99.90
55083;DHT22;40978;52.850;6.506;2022-08-21T07:38:10;20.50;99.90
55083;DHT22;40978;52.850;6.506;2022-08-21T07:40:35;20.70;99.90
55083;DHT22;40978;52.850;6.506;2022-08-21T07:43:01;20.80;99.90
55083;DHT22;40978;52.850;6.506;2022-08-21T07:45:28;21.00;99.90
55083;DHT22;40978;52.850;6.506;2022-08-21T07:47:54;21.10;99.90
55083;DHT22;40978;52.850;6.506;2022-08-21T07:50:19;21.40;99.90
55083;DHT22;40978;52.850;6.506;2022-08-21T07:52:46;21.70;99.90
55083;DHT22;40978;52.850;6.506;2022-08-21T07:55:14;22.20;99.90
55083;DHT22;40978;52.850;6.506;2022-08-21T07:57:41;22.70;99.90
55083;DHT22;40978;52.850;6.506;2022-08-21T08:00:09;23.30;99.90
55083;DHT22;40978;52.850;6.506;2022-08-21T08:02:36;23.90;99.90
55083;DHT22;40978;52.850;6.506;2022-08-21T08:05:04;24.40;99.90
55083;DHT22;40978;52.850;6.506;2022-08-21T08:07:30;25.00;99.90
55083;DHT22;40978;52.850;6.506;2022-08-21T08:09:56;25.60;99.90
55083;DHT22;40978;52.850;6.506;2022-08-21T08:12:21;26.00;99.10
55083;DHT22;40978;52.850;6.506;2022-08-21T08:14:47;26.40;95.80
55083;DHT22;40978;52.850;6.506;2022-08-21T08:17:13;26.60;94.10
55083;DHT22;40978;52.850;6.506;2022-08-21T08:19:39;26.80;92.60
55083;DHT22;40978;52.850;6.506;2022-08-21T08:22:15;27.00;91.60
55083;DHT22;40978;52.850;6.506;2022-08-21T08:24:41;27.30;90.90
55083;DHT22;40978;52.850;6.506;2022-08-21T08:27:07;27.40;88.20
55083;DHT22;40978;52.850;6.506;2022-08-21T08:29:33;27.50;86.30
55083;DHT22;40978;52.850;6.506;2022-08-21T08:31:59;27.80;85.30
55083;DHT22;40978;52.850;6.506;2022-08-21T08:34:25;28.10;83.70
55083;DHT22;40978;52.850;6.506;2022-08-21T08:36:50;28.30;79.70
55083;DHT22;40978;52.850;6.506;2022-08-21T08:39:16;28.50;78.10
55083;DHT22;40978;52.850;6.506;2022-08-21T08:41:43;28.70;75.70
55083;DHT22;40978;52.850;6.506;2022-08-21T08:44:10;28.80;73.30
55083;DHT22;40978;52.850;6.506;2022-08-21T08:46:47;28.70;70.70
55083;DHT22;40978;52.850;6.506;2022-08-21T08:54:38;29.10;68.90
55083;DHT22;40978;52.850;6.506;2022-08-21T08:57:09;29.20;67.60
55083;DHT22;40978;52.850;6.506;2022-08-21T08:59:44;29.30;67.30
55083;DHT22;40978;52.850;6.506;2022-08-21T09:02:11;29.40;66.00
55083;DHT22;40978;52.850;6.506;2022-08-21T09:04:37;29.60;66.90
55083;DHT22;40978;52.850;6.506;2022-08-21T09:21:07;30.00;62.80
55083;DHT22;40978;52.850;6.506;2022-08-21T09:23:46;30.10;62.50
55083;DHT22;40978;52.850;6.506;2022-08-21T09:26:23;30.30;63.70
55083;DHT22;40978;52.850;6.506;2022-08-21T09:28:53;30.40;64.20
55083;DHT22;40978;52.850;6.506;2022-08-21T09:31:29;30.60;63.00
55083;DHT22;40978;52.850;6.506;2022-08-21T09:34:06;30.40;62.90
55083;DHT22;40978;52.850;6.506;2022-08-21T09:36:51;30.40;61.30
55083;DHT22;40978;52.850;6.506;2022-08-21T09:39:29;30.20;60.20
55083;DHT22;40978;52.850;6.506;2022-08-21T09:42:06;29.40;60.40
55083;DHT22;40978;52.850;6.506;2022-08-21T09:44:35;28.80;64.40
55083;DHT22;40978;52.850;6.506;2022-08-21T09:47:05;29.00;67.00
55083;DHT22;40978;52.850;6.506;2022-08-21T09:49:34;29.40;64.30
55083;DHT22;40978;52.850;6.506;2022-08-21T09:52:02;29.00;64.70
55083;DHT22;40978;52.850;6.506;2022-08-21T09:54:32;28.90;64.60
55083;DHT22;40978;52.850;6.506;2022-08-21T09:59:53;28.90;65.50
55083;DHT22;40978;52.850;6.506;2022-08-21T10:02:27;29.20;66.20
55083;DHT22;40978;52.850;6.506;2022-08-21T10:04:56;29.50;64.50
55083;DHT22;40978;52.850;6.506;2022-08-21T10:07:24;29.00;64.00
55083;DHT22;40978;52.850;6.506;2022-08-21T10:10:07;28.70;65.20
55083;DHT22;40978;52.850;6.506;2022-08-21T10:12:45;28.60;64.90
55083;DHT22;40978;52.850;6.506;2022-08-21T10:18:16;29.40;66.50
55083;DHT22;40978;52.850;6.506;2022-08-21T10:23:41;30.20;61.70
55083;DHT22;40978;52.850;6.506;2022-08-21T10:35:21;27.60;65.50
55083;DHT22;40978;52.850;6.506;2022-08-21T10:38:02;27.60;65.80
55083;DHT22;40978;52.850;6.506;2022-08-21T10:57:36;26.40;66.80
55083;DHT22;40978;52.850;6.506;2022-08-21T11:00:10;26.10;68.40
55083;DHT22;40978;52.850;6.506;2022-08-21T11:02:49;25.90;71.40
55083;DHT22;40978;52.850;6.506;2022-08-21T11:05:43;26.50;72.50
55083;DHT22;40978;52.850;6.506;2022-08-21T11:08:26;27.10;70.30
55083;DHT22;40978;52.850;6.506;2022-08-21T11:11:04;27.10;68.00
55083;DHT22;40978;52.850;6.506;2022-08-21T11:16:37;26.60;69.20
55083;DHT22;40978;52.850;6.506;2022-08-21T11:19:41;26.90;70.60
55083;DHT22;40978;52.850;6.506;2022-08-21T11:22:31;27.60;67.80
55083;DHT22;40978;52.850;6.506;2022-08-21T11:27:41;28.80;64.60
55083;DHT22;40978;52.850;6.506;2022-08-21T11:30:09;29.30;63.70
55083;DHT22;40978;52.850;6.506;2022-08-21T11:33:05;29.70;62.30
55083;DHT22;40978;52.850;6.506;2022-08-21T11:35:34;30.10;56.20
55083;DHT22;40978;52.850;6.506;2022-08-21T11:41:23;30.40;58.10
55083;DHT22;40978;52.850;6.506;2022-08-21T11:46:35;30.90;58.40
55083;DHT22;40978;52.850;6.506;2022-08-21T11:52:03;30.70;56.20
55083;DHT22;40978;52.850;6.506;2022-08-21T11:57:51;30.00;57.20
55083;DHT22;40978;52.850;6.506;2022-08-21T12:00:24;28.90;58.20
55083;DHT22;40978;52.850;6.506;2022-08-21T12:02:58;28.30;60.40
55083;DHT22;40978;52.850;6.506;2022-08-21T12:05:30;27.80;60.80
55083;DHT22;40978;52.850;6.506;2022-08-21T12:08:28;27.50;62.30
55083;DHT22;40978;52.850;6.506;2022-08-21T12:13:32;26.70;64.00
55083;DHT22;40978;52.850;6.506;2022-08-21T12:16:13;26.40;65.00
55083;DHT22;40978;52.850;6.506;2022-08-21T12:18:40;26.40;66.60
55083;DHT22;40978;52.850;6.506;2022-08-21T12:21:26;26.30;66.20
55083;DHT22;40978;52.850;6.506;2022-08-21T12:24:35;26.70;66.30
55083;DHT22;40978;52.850;6.506;2022-08-21T12:29:58;28.50;65.60
55083;DHT22;40978;52.850;6.506;2022-08-21T12:32:31;29.20;62.20
55083;DHT22;40978;52.850;6.506;2022-08-21T12:35:18;29.60;60.60
55083;DHT22;40978;52.850;6.506;2022-08-21T12:38:00;29.90;60.30
55083;DHT22;40978;52.850;6.506;2022-08-21T12:40:39;30.10;59.20
55083;DHT22;40978;52.850;6.506;2022-08-21T12:43:20;30.30;60.40
55083;DHT22;40978;52.850;6.506;2022-08-21T12:45:49;30.50;57.40
55083;DHT22;40978;52.850;6.506;2022-08-21T12:51:24;30.60;58.10
55083;DHT22;40978;52.850;6.506;2022-08-21T12:53:58;30.60;58.20
55083;DHT22;40978;52.850;6.506;2022-08-21T12:56:28;30.90;57.70
55083;DHT22;40978;52.850;6.506;2022-08-21T12:59:01;31.30;56.80
55083;DHT22;40978;52.850;6.506;2022-08-21T13:01:49;31.60;56.00
55083;DHT22;40978;52.850;6.506;2022-08-21T13:04:38;31.80;56.20
55083;DHT22;40978;52.850;6.506;2022-08-21T13:07:11;31.50;55.70
55083;DHT22;40978;52.850;6.506;2022-08-21T13:10:05;30.60;55.90
55083;DHT22;40978;52.850;6.506;2022-08-21T13:12:32;29.60;56.60
55083;DHT22;40978;52.850;6.506;2022-08-21T13:15:02;28.60;58.40
55083;DHT22;40978;52.850;6.506;2022-08-21T13:17:33;28.00;60.00
55083;DHT22;40978;52.850;6.506;2022-08-21T13:20:09;27.60;61.90
55083;DHT22;40978;52.850;6.506;2022-08-21T13:22:44;27.40;62.70
55083;DHT22;40978;52.850;6.506;2022-08-21T13:25:15;27.20;63.30
55083;DHT22;40978;52.850;6.506;2022-08-21T13:27:42;27.00;64.40
55083;DHT22;40978;52.850;6.506;2022-08-21T13:30:10;26.70;64.50
55083;DHT22;40978;52.850;6.506;2022-08-21T13:32:41;26.30;64.70
55083;DHT22;40978;52.850;6.506;2022-08-21T13:35:17;26.00;65.50
55083;DHT22;40978;52.850;6.506;2022-08-21T13:37:43;25.60;65.60
55083;DHT22;40978;52.850;6.506;2022-08-21T13:40:17;25.50;66.40
55083;DHT22;40978;52.850;6.506;2022-08-21T13:42:46;25.50;67.50
55083;DHT22;40978;52.850;6.506;2022-08-21T13:45:22;25.60;69.00
55083;DHT22;40978;52.850;6.506;2022-08-21T13:47:48;26.10;69.20
55083;DHT22;40978;52.850;6.506;2022-08-21T13:50:16;26.50;68.50
55083;DHT22;40978;52.850;6.506;2022-08-21T13:52:57;26.90;66.30
55083;DHT22;40978;52.850;6.506;2022-08-21T13:55:24;27.00;65.50
55083;DHT22;40978;52.850;6.506;2022-08-21T13:58:04;27.00;64.60
55083;DHT22;40978;52.850;6.506;2022-08-21T14:00:34;26.80;65.60
55083;DHT22;40978;52.850;6.506;2022-08-21T14:03:08;26.50;65.80
55083;DHT22;40978;52.850;6.506;2022-08-21T14:05:45;26.30;64.80
55083;DHT22;40978;52.850;6.506;2022-08-21T14:08:14;25.90;65.70
55083;DHT22;40978;52.850;6.506;2022-08-21T14:10:48;25.60;66.80
55083;DHT22;40978;52.850;6.506;2022-08-21T14:16:01;25.00;68.90
55083;DHT22;40978;52.850;6.506;2022-08-21T14:18:27;24.80;69.70
55083;DHT22;40978;52.850;6.506;2022-08-21T14:21:09;24.60;70.10
55083;DHT22;40978;52.850;6.506;2022-08-21T14:23:35;24.50;70.80
55083;DHT22;40978;52.850;6.506;2022-08-21T14:26:03;24.30;71.90
55083;DHT22;40978;52.850;6.506;2022-08-21T14:28:47;24.20;72.40
55083;DHT22;40978;52.850;6.506;2022-08-21T14:31:17;24.20;72.30
55083;DHT22;40978;52.850;6.506;2022-08-21T14:33:43;24.10;72.70
55083;DHT22;40978;52.850;6.506;2022-08-21T14:36:09;24.00;72.30
55083;DHT22;40978;52.850;6.506;2022-08-21T14:38:38;24.00;72.60
55083;DHT22;40978;52.850;6.506;2022-08-21T14:41:30;23.90;72.50
55083;DHT22;40978;52.850;6.506;2022-08-21T14:43:56;23.90;74.10
55083;DHT22;40978;52.850;6.506;2022-08-21T14:46:25;23.80;74.70
55083;DHT22;40978;52.850;6.506;2022-08-21T14:48:52;23.80;75.80
55083;DHT22;40978;52.850;6.506;2022-08-21T14:51:17;23.70;76.10
55083;DHT22;40978;52.850;6.506;2022-08-21T14:53:43;23.70;76.40
55083;DHT22;40978;52.850;6.506;2022-08-21T14:56:10;23.60;77.00
55083;DHT22;40978;52.850;6.506;2022-08-21T14:58:42;23.60;77.80
55083;DHT22;40978;52.850;6.506;2022-08-21T15:01:10;23.50;77.40
55083;DHT22;40978;52.850;6.506;2022-08-21T15:03:37;23.50;77.10
55083;DHT22;40978;52.850;6.506;2022-08-21T15:06:04;23.40;75.60
55083;DHT22;40978;52.850;6.506;2022-08-21T15:08:30;23.30;74.40
55083;DHT22;40978;52.850;6.506;2022-08-21T15:10:56;23.30;74.80
55083;DHT22;40978;52.850;6.506;2022-08-21T15:13:22;23.20;76.30
55083;DHT22;40978;52.850;6.506;2022-08-21T15:15:49;23.30;76.50
55083;DHT22;40978;52.850;6.506;2022-08-21T15:18:22;23.30;76.90
55083;DHT22;40978;52.850;6.506;2022-08-21T15:20:49;23.40;77.60
55083;DHT22;40978;52.850;6.506;2022-08-21T15:23:15;23.50;77.30
55083;DHT22;40978;52.850;6.506;2022-08-21T15:25:43;23.70;77.00
55083;DHT22;40978;52.850;6.506;2022-08-21T15:28:10;23.80;76.00
55083;DHT22;40978;52.850;6.506;2022-08-21T15:30:38;23.90;76.40
55083;DHT22;40978;52.850;6.506;2022-08-21T15:33:04;24.10;76.20
55083;DHT22;40978;52.850;6.506;2022-08-21T15:35:30;24.30;75.30
55083;DHT22;40978;52.850;6.506;2022-08-21T15:37:57;24.40;74.70
55083;DHT22;40978;52.850;6.506;2022-08-21T15:40:23;24.40;74.30
55083;DHT22;40978;52.850;6.506;2022-08-21T15:42:50;24.40;73.60
55083;DHT22;40978;52.850;6.506;2022-08-21T15:45:19;24.30;73.20
55083;DHT22;40978;52.850;6.506;2022-08-21T15:47:45;24.20;73.30
55083;DHT22;40978;52.850;6.506;2022-08-21T15:50:13;24.20;74.00
55083;DHT22;40978;52.850;6.506;2022-08-21T15:52:39;24.10;74.50
55083;DHT22;40978;52.850;6.506;2022-08-21T15:55:06;24.00;73.60
55083;DHT22;40978;52.850;6.506;2022-08-21T15:57:34;24.00;73.20
55083;DHT22;40978;52.850;6.506;2022-08-21T16:00:06;23.90;73.20
55083;DHT22;40978;52.850;6.506;2022-08-21T16:02:39;23.80;72.90
55083;DHT22;40978;52.850;6.506;2022-08-21T16:05:05;23.60;73.00
55083;DHT22;40978;52.850;6.506;2022-08-21T16:07:30;23.60;73.90
55083;DHT22;40978;52.850;6.506;2022-08-21T16:09:56;23.70;74.10
55083;DHT22;40978;52.850;6.506;2022-08-21T16:12:34;23.70;73.90
55083;DHT22;40978;52.850;6.506;2022-08-21T16:15:05;23.70;73.80
55083;DHT22;40978;52.850;6.506;2022-08-21T16:17:34;23.70;75.60
55083;DHT22;40978;52.850;6.506;2022-08-21T16:20:06;23.70;74.70
55083;DHT22;40978;52.850;6.506;2022-08-21T16:22:32;23.60;73.00
55083;DHT22;40978;52.850;6.506;2022-08-21T16:24:58;23.50;73.20
55083;DHT22;40978;52.850;6.506;2022-08-21T16:27:23;23.40;73.00
55083;DHT22;40978;52.850;6.506;2022-08-21T16:29:49;23.30;73.60
55083;DHT22;40978;52.850;6.506;2022-08-21T16:32:16;23.20;73.50
55083;DHT22;40978;52.850;6.506;2022-08-21T16:34:45;23.10;73.30
55083;DHT22;40978;52.850;6.506;2022-08-21T16:37:12;23.10;73.30
55083;DHT22;40978;52.850;6.506;2022-08-21T16:39:38;23.00;73.50
55083;DHT22;40978;52.850;6.506;2022-08-21T16:42:04;23.00;74.50
55083;DHT22;40978;52.850;6.506;2022-08-21T16:44:31;23.00;74.60
55083;DHT22;40978;52.850;6.506;2022-08-21T16:46:59;23.00;74.70
55083;DHT22;40978;52.850;6.506;2022-08-21T16:49:25;22.90;74.60
55083;DHT22;40978;52.850;6.506;2022-08-21T16:51:51;22.80;74.60
55083;DHT22;40978;52.850;6.506;2022-08-21T16:54:17;22.80;74.20
55083;DHT22;40978;52.850;6.506;2022-08-21T16:56:43;22.70;74.20
55083;DHT22;40978;52.850;6.506;2022-08-21T16:59:10;22.60;74.40
55083;DHT22;40978;52.850;6.506;2022-08-21T17:01:37;22.60;75.10
55083;DHT22;40978;52.850;6.506;2022-08-21T17:04:04;22.60;75.10
55083;DHT22;40978;52.850;6.506;2022-08-21T17:06:31;22.60;74.50
55083;DHT22;40978;52.850;6.506;2022-08-21T17:08:58;22.50;73.80